createdAt,value
2022-09-24T00:05:14.307Z,99372.88
2022-09-24T00:14:48.493Z,99371.41
2022-09-24T00:24:20.743Z,99376.02
2022-09-24T00:33:56.244Z,99364.06
2022-09-24T00:43:28.429Z,99358.30
2022-09-24T00:53:04.252Z,99354.07
2022-09-24T01:02:38.292Z,99333.15
2022-09-24T01:12:12.287Z,99325.88
2022-09-24T01:21:44.074Z,99315.38
2022-09-24T01:31:21.309Z,99311.58
2022-09-24T01:40:51.627Z,99307.52
2022-09-24T01:50:27.061Z,99288.37
2022-09-24T01:59:58.969Z,99281.86
2022-09-24T02:09:32.995Z,99274.94
2022-09-24T02:19:06.668Z,99281.63
2022-09-24T02:28:41.993Z,99289.61
2022-09-24T02:38:14.480Z,99291.99
2022-09-24T02:47:48.521Z,99288.61
2022-09-24T02:57:24.229Z,99277.59
2022-09-24T03:06:56.015Z,99287.34
2022-09-24T03:16:31.682Z,99264.23
2022-09-24T03:26:04.060Z,99249.05
2022-09-24T03:35:38.184Z,99238.86
2022-09-24T03:45:13.855Z,99237.66
2022-09-24T03:54:47.338Z,99240.20
2022-09-24T04:04:21.423Z,99246.92
2022-09-24T04:13:55.667Z,99242.27
2022-09-24T04:23:27.844Z,99227.41
2022-09-24T04:33:01.769Z,99228.64
2022-09-24T04:42:37.294Z,99226.45
2022-09-24T04:52:09.726Z,99221.53
2022-09-24T05:01:43.971Z,99213.47
2022-09-24T05:11:17.776Z,99213.52
2022-09-24T05:20:52.080Z,99221.34
2022-09-24T05:30:27.723Z,99236.50
2022-09-24T05:40:01.794Z,99245.38
2022-09-24T05:49:34.152Z,99254.91
2022-09-24T05:59:09.753Z,99257.19
2022-09-24T06:08:41.879Z,99255.78
2022-09-24T06:18:17.747Z,99238.55
2022-09-24T06:27:52.245Z,99241.79
2022-09-24T06:37:25.057Z,99261.95
2022-09-24T06:46:59.736Z,99266.16
2022-09-24T06:56:35.382Z,99263.31
2022-09-24T07:06:07.394Z,99274.53
2022-09-24T07:15:43.699Z,99288.46
2022-09-24T07:25:16.530Z,99283.41
2022-09-24T07:34:56.311Z,99262.58
2022-09-24T07:44:27.696Z,99267.36
2022-09-24T07:54:00.462Z,99302.00
2022-09-24T07:55:04.543Z,99303.95
2022-09-24T07:56:07.029Z,99304.10
2022-09-24T07:57:09.410Z,99309.25
2022-09-24T08:06:46.681Z,99315.89
2022-09-24T08:07:46.494Z,99321.05
2022-09-24T08:08:50.452Z,99317.25
2022-09-24T08:09:52.809Z,99323.38
2022-09-24T08:10:55.370Z,99316.63
2022-09-24T08:11:57.728Z,99319.38
2022-09-24T08:13:00.208Z,99314.46
2022-09-24T08:14:04.234Z,99313.86
2022-09-24T08:15:06.625Z,99308.20
2022-09-24T08:16:09.142Z,99310.34
2022-09-24T08:17:13.149Z,99308.80
2022-09-24T08:18:15.417Z,99304.76
2022-09-24T08:19:19.508Z,99301.97
2022-09-24T08:20:23.442Z,99298.31
2022-09-24T08:29:53.926Z,99292.91
2022-09-24T08:30:57.419Z,99291.73
2022-09-24T08:32:01.390Z,99292.63
2022-09-24T08:33:03.713Z,99295.05
2022-09-24T08:34:06.219Z,99297.97
2022-09-24T08:35:08.614Z,99305.49
2022-09-24T08:36:11.071Z,99307.41
2022-09-24T08:37:13.515Z,99308.72
2022-09-24T08:38:17.607Z,99305.48
2022-09-24T08:39:21.543Z,99303.63
2022-09-24T08:40:23.972Z,99301.34
2022-09-24T08:41:26.423Z,99297.84
2022-09-24T08:42:28.879Z,99297.52
2022-09-24T08:43:31.305Z,99294.16
2022-09-24T08:44:35.219Z,99291.27
2022-09-24T08:45:37.605Z,99290.34
2022-09-24T08:46:41.646Z,99287.35
2022-09-24T08:56:12.384Z,99296.41
2022-09-24T08:57:14.858Z,99292.02
2022-09-24T08:58:17.348Z,99293.79
2022-09-24T09:07:52.627Z,99301.44
2022-09-24T09:09:06.665Z,99298.96
2022-09-24T09:09:59.154Z,99295.70
2022-09-24T09:11:01.532Z,99300.33
2022-09-24T09:12:04.009Z,99300.20
2022-09-24T09:13:06.457Z,99301.77
2022-09-24T09:14:10.507Z,99303.31
2022-09-24T09:15:16.630Z,99304.85
2022-09-24T09:16:20.414Z,99301.55
2022-09-24T09:17:24.541Z,99302.97
2022-09-24T09:18:26.825Z,99301.80
2022-09-24T09:19:29.367Z,99297.04
2022-09-24T09:20:31.806Z,99302.06
2022-09-24T09:21:34.243Z,99303.64
2022-09-24T09:22:38.451Z,99303.66
2022-09-24T09:23:42.369Z,99298.76
2022-09-24T09:24:44.699Z,99302.66
2022-09-24T09:25:47.131Z,99301.09
2022-09-24T09:26:52.128Z,99302.38
2022-09-24T09:27:54.487Z,99305.61
2022-09-24T09:28:56.951Z,99307.86
2022-09-24T09:29:59.418Z,99301.54
2022-09-24T09:31:03.611Z,99304.21
2022-09-24T09:32:05.872Z,99301.55
2022-09-24T09:33:08.346Z,99303.95
2022-09-24T09:34:10.791Z,99303.41
2022-09-24T09:35:13.301Z,99301.58
2022-09-24T09:36:15.769Z,99303.44
2022-09-24T09:37:23.431Z,99304.86
2022-09-24T09:38:22.124Z,99307.56
2022-09-24T09:39:26.236Z,99304.28
2022-09-24T09:40:32.055Z,99307.44
2022-09-24T09:41:32.461Z,99309.13
2022-09-24T09:42:34.957Z,99310.55
2022-09-24T09:43:37.339Z,99313.27
2022-09-24T09:44:41.482Z,99310.20
2022-09-24T09:45:43.829Z,99308.70
2022-09-24T09:46:46.359Z,99308.80
2022-09-24T09:47:51.366Z,99309.55
2022-09-24T09:48:53.657Z,99310.23
2022-09-24T09:49:56.091Z,99309.81
2022-09-24T09:50:59.977Z,99304.13
2022-09-24T09:52:04.913Z,99306.38
2022-09-24T09:53:10.969Z,99305.08
2022-09-24T09:54:18.731Z,99308.76
2022-09-24T09:55:20.859Z,99309.48
2022-09-24T09:56:23.271Z,99305.41
2022-09-24T09:57:25.730Z,99304.88
2022-09-24T09:58:28.165Z,99299.98
2022-09-24T09:59:30.637Z,99300.73
2022-09-24T10:00:33.098Z,99298.11
2022-09-24T10:01:35.583Z,99300.20
2022-09-24T10:02:38.051Z,99297.73
2022-09-24T10:03:40.564Z,99302.74
2022-09-24T10:04:42.961Z,99299.45
2022-09-24T10:05:45.381Z,99296.74
2022-09-24T10:06:47.838Z,99297.38
2022-09-24T10:07:50.304Z,99293.11
2022-09-24T10:08:52.804Z,99293.67
2022-09-24T10:09:55.296Z,99290.84
2022-09-24T10:10:57.721Z,99291.38
2022-09-24T10:12:01.806Z,99288.13
2022-09-24T10:13:05.762Z,99289.45
2022-09-24T10:14:09.747Z,99285.12
2022-09-24T10:15:12.009Z,99288.48
2022-09-24T10:16:14.494Z,99286.34
2022-09-24T10:17:16.907Z,99288.72
2022-09-24T10:18:19.342Z,99291.69
2022-09-24T10:19:23.371Z,99292.09
2022-09-24T10:20:28.340Z,99287.95
2022-09-24T10:21:30.659Z,99287.19
2022-09-24T10:22:33.041Z,99285.33
2022-09-24T10:23:35.451Z,99286.78
2022-09-24T10:24:39.454Z,99282.96
2022-09-24T10:25:43.435Z,99287.84
2022-09-24T10:26:47.350Z,99289.29
2022-09-24T10:27:49.684Z,99282.98
2022-09-24T10:28:52.183Z,99287.38
2022-09-24T10:29:54.617Z,99284.59
2022-09-24T10:30:59.724Z,99285.52
2022-09-24T10:32:03.473Z,99283.00
2022-09-24T10:33:05.783Z,99282.02
2022-09-24T10:34:08.346Z,99281.18
2022-09-24T10:35:12.363Z,99276.70
2022-09-24T10:36:14.724Z,99279.84
2022-09-24T10:37:17.410Z,99277.23
2022-09-24T10:38:21.404Z,99272.90
2022-09-24T10:39:28.014Z,99267.35
2022-09-24T10:40:30.228Z,99268.70
2022-09-24T10:41:32.675Z,99259.97
2022-09-24T10:42:36.772Z,99252.59
2022-09-24T10:43:39.095Z,99249.32
2022-09-24T10:44:41.577Z,99250.08
2022-09-24T10:45:44.102Z,99244.84
2022-09-24T10:46:46.731Z,99247.56
2022-09-24T10:47:50.752Z,99242.74
2022-09-24T10:48:53.078Z,99245.70
2022-09-24T10:49:57.200Z,99253.86
2022-09-24T10:51:01.227Z,99258.88
2022-09-24T10:52:03.536Z,99257.94
2022-09-24T10:53:06.012Z,99256.30
2022-09-24T10:54:08.588Z,99258.88
2022-09-24T10:55:11.001Z,99261.94
2022-09-24T10:56:13.446Z,99265.84
2022-09-24T10:57:16.007Z,99265.06
2022-09-24T10:58:18.656Z,99268.48
2022-09-24T10:59:22.726Z,99272.21
2022-09-24T11:00:25.171Z,99270.80
2022-09-24T11:01:27.785Z,99269.55
2022-09-24T11:02:30.204Z,99273.87
2022-09-24T11:03:32.725Z,99270.36
2022-09-24T11:04:38.869Z,99268.09
2022-09-24T11:05:37.612Z,99268.52
2022-09-24T11:06:40.140Z,99262.31
2022-09-24T11:07:42.556Z,99260.08
2022-09-24T11:08:45.044Z,99261.95
2022-09-24T11:09:47.518Z,99255.84
2022-09-24T11:10:49.963Z,99252.06
2022-09-24T11:11:52.415Z,99253.38
2022-09-24T11:12:56.430Z,99251.86
2022-09-24T11:13:58.821Z,99256.95
2022-09-24T11:15:01.299Z,99252.30
2022-09-24T11:16:03.856Z,99247.27
2022-09-24T11:17:06.177Z,99245.95
2022-09-24T11:18:08.627Z,99243.47
2022-09-24T11:19:11.113Z,99240.95
2022-09-24T11:20:13.563Z,99245.55
2022-09-24T11:21:16.009Z,99240.74
2022-09-24T11:22:18.441Z,99244.56
2022-09-24T11:23:20.926Z,99239.23
2022-09-24T11:24:23.380Z,99242.63
2022-09-24T11:25:25.883Z,99245.07
2022-09-24T11:26:28.338Z,99249.42
2022-09-24T11:27:30.823Z,99248.52
2022-09-24T11:28:34.935Z,99249.02
2022-09-24T11:29:37.591Z,99245.20
2022-09-24T11:30:39.790Z,99242.95
2022-09-24T11:31:42.363Z,99250.72
2022-09-24T11:32:46.387Z,99243.68
2022-09-24T11:33:48.730Z,99243.59
2022-09-24T11:34:51.198Z,99251.72
2022-09-24T11:35:53.680Z,99254.37
2022-09-24T11:36:56.122Z,99254.25
2022-09-24T11:37:58.609Z,99250.33
2022-09-24T11:39:02.096Z,99248.81
2022-09-24T11:40:06.132Z,99249.59
2022-09-24T11:41:08.425Z,99251.45
2022-09-24T11:42:10.923Z,99254.95
2022-09-24T11:43:13.386Z,99252.31
2022-09-24T11:44:15.881Z,99248.98
2022-09-24T11:45:19.312Z,99244.58
2022-09-24T11:46:21.755Z,99244.41
2022-09-24T11:47:24.159Z,99245.44
2022-09-24T11:48:28.298Z,99243.41
2022-09-24T11:49:30.717Z,99241.86
2022-09-24T11:50:33.235Z,99243.71
2022-09-24T11:51:37.267Z,99244.19
2022-09-24T11:52:41.263Z,99238.02
2022-09-24T11:53:43.782Z,99237.99
2022-09-24T11:54:46.499Z,99234.13
2022-09-24T11:55:50.035Z,99237.19
2022-09-24T11:56:52.827Z,99227.34
2022-09-24T11:57:55.476Z,99230.20
2022-09-24T11:58:58.139Z,99226.89
2022-09-24T12:00:00.899Z,99229.89
2022-09-24T12:01:05.140Z,99223.03
2022-09-24T12:02:09.266Z,99219.95
2022-09-24T12:03:11.569Z,99217.98
2022-09-24T12:04:15.558Z,99217.55
2022-09-24T12:05:17.973Z,99220.70
2022-09-24T12:06:20.461Z,99214.16
2022-09-24T12:07:24.602Z,99216.89
2022-09-24T12:08:28.494Z,99208.75
2022-09-24T12:09:30.946Z,99207.53
2022-09-24T12:10:33.417Z,99209.00
2022-09-24T12:11:37.512Z,99211.05
2022-09-24T12:12:39.924Z,99211.14
2022-09-24T12:13:43.969Z,99207.70
2022-09-24T12:14:47.977Z,99209.33
2022-09-24T12:15:52.052Z,99207.39
2022-09-24T12:16:54.425Z,99202.71
2022-09-24T12:17:56.861Z,99202.17
2022-09-24T12:18:59.379Z,99200.50
2022-09-24T12:20:01.866Z,99205.50
2022-09-24T12:21:05.987Z,99208.78
2022-09-24T12:22:08.416Z,99210.03
2022-09-24T12:23:11.841Z,99206.63
2022-09-24T12:24:15.840Z,99210.73
2022-09-24T12:25:18.202Z,99202.47
2022-09-24T12:26:20.703Z,99203.57
2022-09-24T12:27:23.247Z,99204.95
2022-09-24T12:28:25.695Z,99206.02
2022-09-24T12:29:30.766Z,99205.49
2022-09-24T12:30:33.157Z,99207.05
2022-09-24T12:31:35.558Z,99204.25
2022-09-24T12:32:38.206Z,99201.55
2022-09-24T12:33:42.546Z,99196.73
2022-09-24T12:34:45.183Z,99202.19
2022-09-24T12:35:50.362Z,99203.83
2022-09-24T12:36:56.916Z,99206.42
2022-09-24T12:37:56.636Z,99202.50
2022-09-24T12:38:59.116Z,99208.36
2022-09-24T12:40:01.647Z,99205.52
2022-09-24T12:41:05.652Z,99198.52
2022-09-24T12:42:08.047Z,99203.89
2022-09-24T12:43:10.525Z,99197.57
2022-09-24T12:44:18.409Z,99201.52
2022-09-24T12:45:18.598Z,99201.70
2022-09-24T12:46:21.243Z,99198.02
2022-09-24T12:47:23.621Z,99201.84
2022-09-24T12:48:27.726Z,99200.49
2022-09-24T12:49:30.072Z,99204.87
2022-09-24T12:50:32.554Z,99198.34
2022-09-24T12:51:35.068Z,99199.45
2022-09-24T12:52:37.568Z,99200.14
2022-09-24T12:53:39.979Z,99199.79
2022-09-24T12:54:44.046Z,99198.27
2022-09-24T12:55:46.412Z,99196.02
2022-09-24T12:56:48.866Z,99201.42
2022-09-24T12:57:52.891Z,99200.47
2022-09-24T12:58:55.274Z,99201.58
2022-09-24T12:59:57.771Z,99199.14
2022-09-24T13:01:01.307Z,99194.89
2022-09-24T13:02:03.819Z,99197.33
2022-09-24T13:03:06.356Z,99195.08
2022-09-24T13:04:09.724Z,99199.17
2022-09-24T13:05:12.161Z,99198.50
2022-09-24T13:06:14.661Z,99197.33
2022-09-24T13:07:17.178Z,99195.47
2022-09-24T13:08:19.679Z,99198.26
2022-09-24T13:09:25.570Z,99191.63
2022-09-24T13:10:24.641Z,99187.95
2022-09-24T13:11:27.106Z,99192.08
2022-09-24T13:12:29.626Z,99189.59
2022-09-24T13:13:32.114Z,99192.31
2022-09-24T13:14:34.631Z,99185.52
2022-09-24T13:15:37.252Z,99188.17
2022-09-24T13:16:39.599Z,99184.52
2022-09-24T13:17:43.736Z,99181.74
2022-09-24T13:18:46.109Z,99177.87
2022-09-24T13:19:48.588Z,99183.39
2022-09-24T13:20:51.150Z,99181.59
2022-09-24T13:21:53.579Z,99184.11
2022-09-24T13:22:56.071Z,99183.95
2022-09-24T13:23:58.524Z,99186.89
2022-09-24T13:25:00.993Z,99185.56
2022-09-24T13:26:03.523Z,99183.54
2022-09-24T13:27:07.595Z,99184.02
2022-09-24T13:28:11.668Z,99185.09
2022-09-24T13:29:15.645Z,99182.30
2022-09-24T13:30:18.018Z,99178.80
2022-09-24T13:31:20.580Z,99185.38
2022-09-24T13:32:24.592Z,99184.57
2022-09-24T13:33:28.622Z,99182.70
2022-09-24T13:34:32.510Z,99184.78
2022-09-24T13:35:34.980Z,99181.78
2022-09-24T13:36:39.010Z,99187.34
2022-09-24T13:37:41.391Z,99184.53
2022-09-24T13:38:45.452Z,99185.17
2022-09-24T13:39:49.389Z,99184.88
2022-09-24T13:40:51.947Z,99182.06
2022-09-24T13:41:54.289Z,99189.80
2022-09-24T13:42:56.802Z,99186.86
2022-09-24T13:43:59.199Z,99185.81
2022-09-24T13:45:04.131Z,99187.40
2022-09-24T13:46:04.211Z,99189.77
2022-09-24T13:47:07.695Z,99188.78
2022-09-24T13:48:10.084Z,99194.29
2022-09-24T13:49:14.159Z,99189.40
2022-09-24T13:50:17.643Z,99190.36
2022-09-24T13:51:21.594Z,99193.83
2022-09-24T13:52:25.630Z,99191.40
2022-09-24T13:53:29.573Z,99190.44
2022-09-24T13:54:33.400Z,99191.28
2022-09-24T13:55:37.394Z,99193.08
2022-09-24T13:56:41.349Z,99190.09
2022-09-24T13:57:43.726Z,99190.02
2022-09-24T13:58:47.768Z,99188.33
2022-09-24T13:59:51.652Z,99187.59
2022-09-24T14:00:53.986Z,99184.42
2022-09-24T14:01:56.483Z,99185.41
2022-09-24T14:02:58.955Z,99182.45
2022-09-24T14:04:02.935Z,99181.33
2022-09-24T14:05:05.320Z,99184.95
2022-09-24T14:06:07.726Z,99180.30
2022-09-24T14:07:10.224Z,99177.41
2022-09-24T14:08:12.637Z,99176.03
2022-09-24T14:09:15.121Z,99174.24
2022-09-24T14:10:17.609Z,99177.84
2022-09-24T14:11:22.622Z,99173.59
2022-09-24T14:12:26.513Z,99175.83
2022-09-24T14:13:28.913Z,99176.55
2022-09-24T14:14:31.385Z,99172.64
2022-09-24T14:15:33.862Z,99169.10
2022-09-24T14:16:36.348Z,99169.78
2022-09-24T14:17:38.812Z,99168.66
2022-09-24T14:18:41.329Z,99164.86
2022-09-24T14:19:43.780Z,99165.27
2022-09-24T14:20:46.278Z,99163.19
2022-09-24T14:21:48.945Z,99164.77
2022-09-24T14:22:53.955Z,99163.94
2022-09-24T14:23:57.909Z,99166.05
2022-09-24T14:25:01.327Z,99161.37
2022-09-24T14:26:03.731Z,99163.97
2022-09-24T14:27:06.233Z,99159.62
2022-09-24T14:28:08.730Z,99162.06
2022-09-24T14:29:11.246Z,99160.80
2022-09-24T14:30:13.664Z,99160.88
2022-09-24T14:31:16.216Z,99163.92
2022-09-24T14:32:19.735Z,99155.42
2022-09-24T14:33:22.089Z,99162.58
2022-09-24T14:34:24.554Z,99161.63
2022-09-24T14:35:29.947Z,99157.38
2022-09-24T14:36:30.421Z,99158.66
2022-09-24T14:37:33.921Z,99157.36
2022-09-24T14:38:37.339Z,99159.55
2022-09-24T14:39:39.646Z,99161.00
2022-09-24T14:40:42.228Z,99162.28
2022-09-24T14:41:44.581Z,99159.44
2022-09-24T14:42:48.655Z,99156.93
2022-09-24T14:43:50.966Z,99155.00
2022-09-24T14:44:53.407Z,99154.77
2022-09-24T14:45:55.910Z,99157.53
2022-09-24T14:46:58.419Z,99154.09
2022-09-24T14:48:00.803Z,99147.66
2022-09-24T14:49:04.911Z,99147.02
2022-09-24T14:50:10.167Z,99146.08
2022-09-24T14:51:12.428Z,99147.52
2022-09-24T14:52:14.932Z,99144.72
2022-09-24T14:53:17.390Z,99146.30
2022-09-24T14:54:19.937Z,99146.64
2022-09-24T14:55:23.446Z,99142.88
2022-09-24T14:56:25.835Z,99148.84
2022-09-24T15:05:59.468Z,99148.23
2022-09-24T15:07:01.844Z,99151.59
2022-09-24T15:08:04.443Z,99151.19
2022-09-24T15:09:06.989Z,99155.58
2022-09-24T15:10:09.580Z,99149.91
2022-09-24T15:11:13.897Z,99148.97
2022-09-24T15:12:16.228Z,99155.05
2022-09-24T15:13:18.709Z,99152.55
2022-09-24T15:14:22.224Z,99151.35
2022-09-24T15:15:25.534Z,99148.02
2022-09-24T15:16:29.038Z,99145.66
2022-09-24T15:17:31.326Z,99149.88
2022-09-24T15:18:39.372Z,99151.25
2022-09-24T15:19:41.499Z,99145.77
2022-09-24T15:20:43.938Z,99151.92
2022-09-24T15:21:46.411Z,99148.04
2022-09-24T15:22:48.927Z,99151.02
2022-09-24T15:23:53.003Z,99148.56
2022-09-24T15:25:00.396Z,99150.59
2022-09-24T15:25:57.883Z,99151.27
2022-09-24T15:27:00.342Z,99145.48
2022-09-24T15:28:02.789Z,99148.55
2022-09-24T15:29:06.837Z,99144.30
2022-09-24T15:30:09.495Z,99145.81
2022-09-24T15:31:11.958Z,99143.56
2022-09-24T15:32:14.367Z,99144.69
2022-09-24T15:33:16.862Z,99147.20
2022-09-24T15:34:20.194Z,99143.97
2022-09-24T15:35:23.407Z,99146.19
2022-09-24T15:36:25.895Z,99148.66
2022-09-24T15:37:30.111Z,99143.55
2022-09-24T15:38:32.459Z,99144.52
2022-09-24T15:39:34.946Z,99145.83
2022-09-24T15:40:40.108Z,99142.61
2022-09-24T15:41:43.850Z,99143.66
2022-09-24T15:42:46.178Z,99144.41
2022-09-24T15:43:48.639Z,99143.40
2022-09-24T15:44:51.141Z,99147.87
2022-09-24T15:45:54.550Z,99147.27
2022-09-24T15:46:58.632Z,99141.94
2022-09-24T15:48:00.807Z,99142.63
2022-09-24T15:49:04.856Z,99143.88
2022-09-24T15:50:07.186Z,99142.27
2022-09-24T15:51:13.903Z,99138.06
2022-09-24T15:52:13.040Z,99145.86
2022-09-24T15:53:17.100Z,99140.07
2022-09-24T15:54:19.473Z,99143.71
2022-09-24T15:55:23.546Z,99145.48
2022-09-24T15:56:28.203Z,99139.75
2022-09-24T15:57:31.436Z,99143.81
2022-09-24T15:58:34.609Z,99145.52
2022-09-24T15:59:36.988Z,99141.34
2022-09-24T16:00:39.496Z,99143.03
2022-09-24T16:01:42.096Z,99139.69
2022-09-24T16:02:46.302Z,99142.74
2022-09-24T16:03:50.126Z,99145.38
2022-09-24T16:04:52.463Z,99147.48
2022-09-24T16:05:55.019Z,99143.94
2022-09-24T16:06:57.443Z,99147.06
2022-09-24T16:08:00.072Z,99145.59
2022-09-24T16:09:02.675Z,99147.77
2022-09-24T16:10:06.705Z,99144.69
2022-09-24T16:11:10.706Z,99143.72
2022-09-24T16:12:13.039Z,99144.55
2022-09-24T16:13:15.545Z,99144.71
2022-09-24T16:14:18.005Z,99143.55
2022-09-24T16:15:20.454Z,99146.05
2022-09-24T16:16:22.939Z,99145.89
2022-09-24T16:17:25.415Z,99151.61
2022-09-24T16:18:27.926Z,99152.33
2022-09-24T16:19:32.011Z,99153.75
2022-09-24T16:20:35.026Z,99151.01
2022-09-24T16:21:37.572Z,99149.70
2022-09-24T16:22:39.998Z,99152.97
2022-09-24T16:23:45.070Z,99153.92
2022-09-24T16:24:49.960Z,99154.81
2022-09-24T16:25:52.222Z,99154.85
2022-09-24T16:26:57.223Z,99153.72
2022-09-24T16:27:59.465Z,99154.62
2022-09-24T16:29:01.961Z,99158.91
2022-09-24T16:30:06.024Z,99157.75
2022-09-24T16:31:08.526Z,99154.61
2022-09-24T16:32:10.969Z,99155.91
2022-09-24T16:33:15.014Z,99160.09
2022-09-24T16:34:17.351Z,99157.13
2022-09-24T16:35:19.876Z,99156.58
2022-09-24T16:36:22.392Z,99154.88
2022-09-24T16:37:25.071Z,99156.00
2022-09-24T16:38:27.572Z,99158.99
2022-09-24T16:39:30.067Z,99160.58
2022-09-24T16:40:34.151Z,99160.27
2022-09-24T16:41:36.464Z,99161.61
2022-09-24T16:42:40.500Z,99160.84
2022-09-24T16:43:42.846Z,99162.69
2022-09-24T16:44:45.385Z,99160.34
2022-09-24T16:45:47.835Z,99164.06
2022-09-24T16:46:51.967Z,99166.45
2022-09-24T16:56:22.406Z,99160.11
2022-09-24T16:57:24.895Z,99165.53
2022-09-24T16:58:27.377Z,99167.67
2022-09-24T17:08:01.823Z,99189.27
2022-09-24T17:09:04.189Z,99192.75
2022-09-24T17:18:37.330Z,99213.34
2022-09-24T17:28:11.910Z,99196.59
2022-09-24T17:37:45.131Z,99201.80
2022-09-24T17:47:17.112Z,99215.13
2022-09-24T17:56:51.171Z,99221.77
2022-09-24T18:06:30.637Z,99224.42
2022-09-24T18:15:59.209Z,99227.84
2022-09-24T18:25:33.394Z,99224.84
2022-09-24T18:35:09.217Z,99234.77
2022-09-24T18:44:43.354Z,99246.07
2022-09-24T18:54:15.863Z,99235.36
2022-09-24T19:03:50.767Z,99244.75
2022-09-24T19:13:26.632Z,99234.43
2022-09-24T19:14:30.203Z,99234.45
2022-09-24T19:24:03.118Z,99234.05
2022-09-24T19:33:35.415Z,99245.32
2022-09-24T19:43:10.936Z,99257.37
2022-09-24T19:52:43.376Z,99269.24
2022-09-24T20:02:18.721Z,99270.55
2022-09-24T20:11:52.191Z,99268.45
2022-09-24T20:21:26.485Z,99269.13
2022-09-24T20:31:01.317Z,99276.37
2022-09-24T20:40:37.169Z,99279.23
2022-09-24T20:50:09.833Z,99279.34
2022-09-24T20:59:44.462Z,99277.55
2022-09-24T21:09:20.357Z,99285.66
2022-09-24T21:18:53.489Z,99288.66
2022-09-24T21:28:27.113Z,99307.19
2022-09-24T21:38:01.545Z,99312.88
2022-09-24T21:47:35.906Z,99312.30
2022-09-24T21:57:11.672Z,99312.40
2022-09-24T22:06:44.404Z,99303.16
2022-09-24T22:16:18.798Z,99296.95
2022-09-24T22:25:54.091Z,99288.90
2022-09-24T22:35:27.339Z,99273.87
2022-09-24T22:45:03.109Z,99265.77
2022-09-24T22:54:35.751Z,99271.66
2022-09-24T23:04:10.112Z,99281.80
2022-09-24T23:13:44.194Z,99278.91
2022-09-24T23:23:19.226Z,99269.86
2022-09-24T23:32:54.732Z,99263.52
2022-09-24T23:42:29.417Z,99261.59
2022-09-24T23:52:01.604Z,99263.50
